Time;durP1;ratioP1;P1;durP2;ratioP2;P2;SDS_P1;SDS_P2;PMS_P1;PMS_P2;Temp;Humidity;BMP_temperature;BMP_pressure;BME280_temperature;BME280_humidity;BME280_pressure;Samples;Min_cycle;Max_cycle;Signal;HPM_P1;HPM_P2
2021/05/12 00:01:25;;;;;;;10.23;5.30;;;;;;;18.05;69.60;98260.15;4254760;83;28541;-83
2021/05/12 00:07:27;;;;;;;8.98;4.60;;;;;;;17.93;69.40;98267.39;4265432;82;28494;-81
2021/05/12 00:13:28;;;;;;;9.35;4.85;;;;;;;17.92;67.77;98276.12;4274762;82;28497;-82
2021/05/12 00:19:31;;;;;;;8.65;5.28;;;;;;;18.03;66.91;98275.40;4298111;82;28485;-82
2021/05/12 00:25:32;;;;;;;9.65;5.25;;;;;;;17.50;72.70;98266.46;4288581;82;28526;-81
2021/05/12 00:31:34;;;;;;;10.43;5.40;;;;;;;17.42;71.20;98264.41;4308828;83;28493;-81
2021/05/12 00:37:35;;;;;;;7.37;4.97;;;;;;;17.05;74.18;98266.84;4301148;82;28478;-82
2021/05/12 00:43:37;;;;;;;10.35;5.53;;;;;;;17.21;71.52;98270.72;4292240;82;28518;-81
2021/05/12 00:49:38;;;;;;;9.73;5.25;;;;;;;17.02;72.03;98276.94;4278975;83;28532;-81
2021/05/12 00:55:40;;;;;;;7.50;4.75;;;;;;;16.79;74.85;98273.95;4270778;82;28533;-82
2021/05/12 01:01:41;;;;;;;8.13;5.20;;;;;;;16.73;77.56;98266.96;4263818;83;28514;-80
2021/05/12 01:07:43;;;;;;;7.62;4.92;;;;;;;16.60;80.26;98276.61;4269001;82;28533;-81
2021/05/12 01:13:44;;;;;;;9.90;4.97;;;;;;;16.58;77.87;98274.20;4285824;82;28460;-82
2021/05/12 01:19:46;;;;;;;10.55;5.50;;;;;;;16.38;78.48;98271.16;4274848;82;28582;-81
2021/05/12 01:25:50;;;;;;;11.10;4.97;;;;;;;16.25;81.03;98268.61;4268920;82;28571;-82
2021/05/12 01:31:53;;;;;;;7.20;4.95;;;;;;;16.23;82.90;98269.98;4298968;82;28585;-82
2021/05/12 01:37:55;;;;;;;8.43;4.65;;;;;;;16.05;84.11;98257.41;4306551;82;28478;-82
2021/05/12 01:43:57;;;;;;;9.08;5.33;;;;;;;16.13;82.50;98251.91;4266051;82;28515;-83
2021/05/12 01:50:01;;;;;;;12.03;6.00;;;;;;;16.13;83.62;98252.72;4262897;82;28472;-82
2021/05/12 01:56:03;;;;;;;10.55;5.95;;;;;;;15.99;83.42;98250.44;4221470;82;28620;-83
2021/05/12 02:02:04;;;;;;;8.33;5.40;;;;;;;15.81;86.04;98251.38;4215237;82;28476;-82
2021/05/12 02:08:10;;;;;;;8.95;5.08;;;;;;;15.74;87.36;98246.30;4250304;82;28595;-82
2021/05/12 02:14:12;;;;;;;12.87;5.60;;;;;;;15.49;90.84;98247.31;4249821;82;28504;-82
2021/05/12 02:20:17;;;;;;;11.85;5.35;;;;;;;15.52;92.23;98249.45;4271605;82;28615;-82
2021/05/12 02:26:18;;;;;;;10.90;6.05;;;;;;;15.54;90.30;98241.84;4254561;82;28562;-82
2021/05/12 02:32:20;;;;;;;10.20;5.60;;;;;;;15.20;95.18;98235.88;4236090;82;28543;-82
2021/05/12 02:38:22;;;;;;;9.30;5.10;;;;;;;15.13;95.60;98227.25;4247380;82;28536;-81
2021/05/12 02:44:23;;;;;;;9.48;5.15;;;;;;;14.83;100.00;98226.34;4264385;82;28511;-81
2021/05/12 02:50:42;;;;;;;10.38;5.58;;;;;;;14.88;100.00;98217.65;4266150;82;28522;-81
2021/05/12 02:56:43;;;;;;;11.35;5.78;;;;;;;14.86;100.00;98214.98;4278943;82;28493;-82
2021/05/12 03:02:44;;;;;;;11.70;5.72;;;;;;;14.78;100.00;98222.59;4271145;82;28525;-82
2021/05/12 03:08:46;;;;;;;9.20;5.70;;;;;;;14.59;100.00;98212.92;4260972;82;28493;-83
2021/05/12 03:14:47;;;;;;;8.13;4.90;;;;;;;14.57;100.00;98215.63;4237170;83;28530;-82
2021/05/12 03:20:48;;;;;;;12.73;6.30;;;;;;;14.55;100.00;98209.14;4241939;83;28643;-83
2021/05/12 03:26:51;;;;;;;15.45;6.62;;;;;;;14.99;100.00;98220.30;4286579;82;28462;-82
2021/05/12 03:32:53;;;;;;;10.10;5.50;;;;;;;14.98;100.00;98213.27;4270765;82;28623;-83
2021/05/12 03:38:54;;;;;;;9.60;5.30;;;;;;;15.08;100.00;98210.49;4274512;82;28475;-81
2021/05/12 03:44:56;;;;;;;9.70;5.12;;;;;;;15.21;100.00;98210.41;4270382;82;28570;-81
2021/05/12 03:50:59;;;;;;;10.82;5.20;;;;;;;15.16;100.00;98208.55;4257156;82;29020;-81
2021/05/12 03:57:00;;;;;;;9.13;5.85;;;;;;;15.33;100.00;98208.70;4260384;82;28519;-82
2021/05/12 04:03:02;;;;;;;13.20;5.67;;;;;;;15.53;100.00;98209.63;4271373;83;28553;-81
2021/05/12 04:09:03;;;;;;;13.40;5.90;;;;;;;15.94;100.00;98210.63;4275915;82;28556;-81
2021/05/12 04:15:08;;;;;;;11.12;6.12;;;;;;;16.22;100.00;98213.57;4232015;83;28508;-83
2021/05/12 04:21:09;;;;;;;13.28;6.40;;;;;;;16.64;90.34;98210.36;4203395;83;28485;-83
2021/05/12 04:27:12;;;;;;;9.85;5.78;;;;;;;16.78;89.16;98202.30;4217679;83;28660;-83
2021/05/12 04:33:13;;;;;;;11.93;6.10;;;;;;;16.92;83.72;98202.39;4216836;83;28541;-81
2021/05/12 04:39:15;;;;;;;13.45;5.95;;;;;;;17.32;80.62;98193.39;4270058;82;28527;-82
2021/05/12 04:45:19;;;;;;;14.80;6.45;;;;;;;17.41;77.30;98197.05;4276631;82;28975;-82
2021/05/12 04:51:21;;;;;;;8.70;6.05;;;;;;;17.28;74.82;98198.61;4197968;84;28491;-82
2021/05/12 04:57:22;;;;;;;13.53;6.33;;;;;;;17.27;73.29;98197.00;4202034;84;28494;-82
2021/05/12 05:03:24;;;;;;;13.83;7.17;;;;;;;17.27;73.13;98186.13;4200238;84;28567;-83
2021/05/12 05:09:25;;;;;;;16.67;7.62;;;;;;;17.23;72.88;98189.20;4212696;84;28484;-83
2021/05/12 05:15:27;;;;;;;16.93;7.60;;;;;;;17.07;73.01;98190.52;4215501;84;28610;-83
2021/05/12 05:21:28;;;;;;;14.45;7.65;;;;;;;17.40;71.88;98187.28;4239604;84;28527;-84
2021/05/12 05:27:30;;;;;;;21.57;8.95;;;;;;;17.48;71.47;98191.23;4239226;84;28488;-83
2021/05/12 05:33:31;;;;;;;18.12;7.58;;;;;;;17.52;71.38;98186.80;4226867;84;28484;-83
2021/05/12 05:39:52;;;;;;;12.88;6.40;;;;;;;17.68;68.87;98185.19;4222704;84;28572;-85
2021/05/12 05:46:11;;;;;;;15.03;6.85;;;;;;;17.76;67.73;98189.94;4341090;80;28509;-83
2021/05/12 05:52:31;;;;;;;15.03;7.50;;;;;;;18.01;67.27;98184.30;4404393;80;28541;-83
2021/05/12 05:58:51;;;;;;;12.50;7.30;;;;;;;17.98;67.58;98182.44;4312826;82;28566;-82
2021/05/12 06:05:01;;;;;;;12.93;6.35;;;;;;;17.87;67.98;98183.74;4256206;82;28527;-82
2021/05/12 06:11:22;;;;;;;16.55;7.58;;;;;;;18.14;67.00;98186.27;4245976;82;28553;-83
2021/05/12 06:17:42;;;;;;;12.33;6.55;;;;;;;18.38;66.90;98179.80;4309065;82;28536;-82
2021/05/12 06:24:03;;;;;;;11.48;6.33;;;;;;;18.62;66.26;98178.75;4404885;80;28537;-83
2021/05/12 06:30:24;;;;;;;15.38;5.50;;;;;;;18.60;64.56;98177.72;4368752;80;28545;-83
2021/05/12 06:36:45;;;;;;;17.70;5.28;;;;;;;18.99;63.49;98178.75;4384258;80;28543;-83
2021/05/12 06:42:48;;;;;;;14.87;5.40;;;;;;;19.16;62.25;98172.11;4353300;80;28606;-83
2021/05/12 06:48:50;;;;;;;12.60;5.35;;;;;;;19.27;62.91;98171.87;4404294;80;28539;-82
2021/05/12 06:54:53;;;;;;;17.77;5.92;;;;;;;19.56;62.00;98170.03;4417413;80;28598;-83
2021/05/12 07:00:54;;;;;;;12.80;4.80;;;;;;;19.58;61.22;98156.92;4424836;80;28542;-80
2021/05/12 07:06:56;;;;;;;15.35;4.55;;;;;;;19.91;61.07;98154.41;4402240;80;28488;-83
2021/05/12 07:12:58;;;;;;;13.62;5.50;;;;;;;20.05;59.34;98150.23;4417247;80;28488;-83
2021/05/12 07:19:00;;;;;;;12.68;4.85;;;;;;;20.23;60.42;98152.45;4341518;81;28510;-83
2021/05/12 07:25:01;;;;;;;13.30;4.60;;;;;;;20.43;59.74;98142.88;4322734;81;28561;-85
2021/05/12 07:31:03;;;;;;;13.10;5.62;;;;;;;20.55;57.09;98140.86;4344001;81;28543;-83
2021/05/12 07:37:06;;;;;;;16.62;5.80;;;;;;;20.64;56.96;98131.88;4340502;81;28503;-84
2021/05/12 07:43:13;;;;;;;15.15;5.78;;;;;;;21.01;56.57;98126.94;4349542;81;28472;-84
2021/05/12 07:49:12;;;;;;;15.60;5.47;;;;;;;21.13;56.30;98121.61;4351525;81;28590;-86
2021/05/12 07:55:14;;;;;;;15.90;4.85;;;;;;;21.35;55.36;98113.52;4292325;82;28552;-86
2021/05/12 08:01:29;;;;;;;14.07;4.65;;;;;;;21.69;55.04;98116.73;4244420;82;28498;-84
2021/05/12 08:07:18;;;;;;;12.80;4.30;;;;;;;21.75;54.79;98108.36;4278961;82;28492;-86
2021/05/12 08:13:19;;;;;;;8.23;4.12;;;;;;;21.93;52.89;98109.08;4330264;81;28498;-85
2021/05/12 08:19:21;;;;;;;12.88;4.17;;;;;;;22.12;53.22;98108.64;4330527;81;28511;-85
2021/05/12 08:25:23;;;;;;;6.37;3.80;;;;;;;22.06;52.15;98103.93;4335968;81;28488;-85
2021/05/12 08:31:25;;;;;;;7.35;4.28;;;;;;;22.32;50.44;98104.91;4333977;81;28496;-83
2021/05/12 08:37:26;;;;;;;7.10;3.33;;;;;;;22.38;50.61;98089.31;4334836;81;28483;-85
2021/05/12 08:43:28;;;;;;;6.70;3.70;;;;;;;22.60;49.55;98090.73;4345222;81;28523;-85
2021/05/12 08:49:33;;;;;;;8.10;3.50;;;;;;;22.86;50.90;98075.98;4320538;81;28964;-86
2021/05/12 08:55:35;;;;;;;9.43;3.62;;;;;;;23.05;47.76;98070.02;4313738;81;28582;-85
2021/05/12 09:01:37;;;;;;;9.03;3.67;;;;;;;23.11;47.97;98063.98;4320302;82;28476;-85
2021/05/12 09:07:38;;;;;;;8.95;3.20;;;;;;;23.36;47.11;98063.27;4322436;82;28529;-84
2021/05/12 09:13:49;;;;;;;6.65;3.50;;;;;;;23.65;46.70;98060.88;4320200;81;28456;-84
2021/05/12 09:19:51;;;;;;;10.30;3.55;;;;;;;23.73;46.32;98055.05;4338838;82;28514;-82
2021/05/12 09:25:58;;;;;;;7.87;3.30;;;;;;;23.88;44.70;98040.42;4346882;81;28495;-84
2021/05/12 09:32:09;;;;;;;7.40;3.12;;;;;;;24.15;44.29;98041.66;4335897;82;28480;-85
2021/05/12 09:38:23;;;;;;;4.83;2.83;;;;;;;24.18;43.16;98034.09;4321936;81;28514;-85
2021/05/12 09:44:28;;;;;;;5.80;2.70;;;;;;;24.49;43.72;98025.77;4328556;82;28539;-84
2021/05/12 09:50:38;;;;;;;4.33;2.45;;;;;;;24.61;42.20;98017.25;4325877;81;28511;-84
2021/05/12 09:56:56;;;;;;;3.75;2.15;;;;;;;24.78;40.71;98011.48;4319481;81;28495;-85
2021/05/12 10:02:59;;;;;;;5.85;2.60;;;;;;;24.89;38.26;98009.03;4279897;82;28534;-84
2021/05/12 10:09:24;;;;;;;6.12;2.50;;;;;;;25.02;38.50;98004.23;4282738;82;28508;-85
2021/05/12 10:15:25;;;;;;;7.33;2.75;;;;;;;25.18;40.11;98008.97;4293918;82;28482;-85
2021/05/12 10:21:26;;;;;;;3.90;2.58;;;;;;;25.33;39.95;98004.03;4303298;82;28504;-84
2021/05/12 10:27:30;;;;;;;3.50;2.60;;;;;;;25.60;39.14;98002.13;4323708;82;28586;-85
2021/05/12 10:33:51;;;;;;;7.85;2.87;;;;;;;25.55;38.75;97995.53;4330640;81;28602;-84
2021/05/12 10:40:01;;;;;;;3.75;1.98;;;;;;;25.68;38.32;97987.38;4285634;83;28485;-86
2021/05/12 10:46:11;;;;;;;6.80;2.47;;;;;;;25.96;37.51;97982.87;4274297;82;28537;-86
2021/05/12 10:52:09;;;;;;;7.08;2.58;;;;;;;25.95;37.98;97982.09;4291854;82;28502;-86
2021/05/12 10:58:17;;;;;;;6.65;2.33;;;;;;;26.06;35.79;97970.51;4280916;82;28494;-86
2021/05/12 11:04:21;;;;;;;6.72;2.30;;;;;;;26.09;35.58;97962.33;4291395;82;28579;-86
2021/05/12 11:10:23;;;;;;;3.87;2.33;;;;;;;26.28;35.08;97957.98;4273176;82;28508;-86
2021/05/12 11:16:24;;;;;;;3.65;2.22;;;;;;;26.41;34.32;97951.18;4294840;82;28507;-85
2021/05/12 11:29:01;;;;;;;5.28;2.40;;;;;;;26.65;33.77;97940.17;4276548;82;28655;-86
2021/05/12 11:34:49;;;;;;;9.13;2.70;;;;;;;26.64;33.02;97932.50;4261542;82;28511;-84
2021/05/12 11:41:14;;;;;;;8.25;2.40;;;;;;;26.74;34.36;97931.09;4286755;82;28470;-87
2021/05/12 11:47:29;;;;;;;4.08;2.65;;;;;;;26.85;34.66;97912.77;4292892;82;28561;-87
2021/05/12 11:53:38;;;;;;;4.90;2.63;;;;;;;27.15;35.63;97901.67;4285636;82;28533;-87
2021/05/12 11:59:40;;;;;;;4.08;2.08;;;;;;;27.03;34.95;97905.41;4232018;82;28529;-85
2021/05/12 12:05:48;;;;;;;4.53;2.25;;;;;;;27.54;36.57;97885.50;4259544;83;28550;-85
2021/05/12 12:11:47;;;;;;;3.92;2.30;;;;;;;27.76;35.88;97883.83;4264242;82;28525;-86
2021/05/12 12:17:51;;;;;;;4.50;2.90;;;;;;;27.70;34.96;97881.17;4278525;83;28630;-84
2021/05/12 12:23:53;;;;;;;7.42;3.00;;;;;;;27.77;35.99;97879.09;4276577;82;28525;-83
2021/05/12 12:29:54;;;;;;;5.42;2.20;;;;;;;27.71;35.95;97862.66;4269590;82;28530;-82
2021/05/12 12:36:12;;;;;;;4.85;2.20;;;;;;;28.17;37.03;97846.39;4277274;82;28502;-85
2021/05/12 12:42:18;;;;;;;6.90;3.05;;;;;;;28.32;35.48;97837.11;4277592;82;28521;-84
2021/05/12 12:48:24;;;;;;;7.12;3.10;;;;;;;28.20;36.86;97845.68;4247139;83;28635;-84
2021/05/12 12:54:41;;;;;;;5.08;3.08;;;;;;;28.28;36.28;97836.30;4277386;83;28467;-84
2021/05/12 13:00:42;;;;;;;7.92;2.50;;;;;;;28.31;36.77;97833.34;4282590;83;28573;-84
2021/05/12 13:06:46;;;;;;;4.80;2.58;;;;;;;28.39;36.72;97830.86;4286368;83;28560;-87
2021/05/12 13:12:47;;;;;;;5.60;2.33;;;;;;;28.43;33.99;97826.75;4295151;83;28513;-83
2021/05/12 13:18:54;;;;;;;5.58;2.60;;;;;;;28.55;34.67;97822.91;4279816;83;28536;-91
2021/05/12 13:25:08;;;;;;;6.95;2.80;;;;;;;28.30;35.50;97815.98;4283134;83;28575;-85
2021/05/12 13:31:09;;;;;;;5.45;2.50;;;;;;;28.39;36.06;97801.27;4287897;83;28480;-84
2021/05/12 13:37:10;;;;;;;6.20;2.50;;;;;;;28.33;34.39;97804.16;4295411;83;28519;-83
2021/05/12 13:43:12;;;;;;;7.80;3.12;;;;;;;28.86;35.05;97790.39;4288218;82;28473;-84
2021/05/12 13:49:14;;;;;;;9.58;3.20;;;;;;;28.52;35.28;97783.00;4287446;82;28579;-86
2021/05/12 13:55:23;;;;;;;5.20;2.12;;;;;;;28.78;34.59;97770.14;4288027;82;28537;-86
2021/05/12 14:07:37;;;;;;;8.60;2.60;;;;;;;28.78;35.37;97761.84;4278180;82;28572;-85
2021/05/12 14:13:36;;;;;;;8.25;2.35;;;;;;;28.20;35.49;97774.63;4297269;82;28545;-87
2021/05/12 14:19:38;;;;;;;8.73;2.70;;;;;;;28.18;35.82;97759.02;4301012;82;28490;-85
2021/05/12 14:25:39;;;;;;;11.35;2.90;;;;;;;28.21;35.45;97761.62;4284620;82;28501;-85
2021/05/12 14:31:41;;;;;;;6.17;2.35;;;;;;;28.46;34.86;97749.97;4255345;82;28488;-83
2021/05/12 14:37:42;;;;;;;12.03;2.40;;;;;;;28.43;34.80;97757.08;4295878;82;28510;-85
2021/05/12 14:43:43;;;;;;;16.00;2.58;;;;;;;28.37;34.04;97744.17;4300319;82;28560;-85
2021/05/12 14:49:45;;;;;;;4.58;2.00;;;;;;;28.09;33.86;97755.75;4273082;82;28522;-84
2021/05/12 15:02:35;;;;;;;9.13;2.08;;;;;;;27.96;33.53;97749.12;4274229;82;28576;-83
2021/05/12 15:08:18;;;;;;;9.73;2.35;;;;;;;27.88;33.78;97735.63;4278911;82;28608;-83
2021/05/12 15:14:19;;;;;;;6.10;2.37;;;;;;;28.12;34.24;97721.86;4284428;82;28528;-83
2021/05/12 15:20:20;;;;;;;7.08;2.25;;;;;;;28.28;33.71;97711.14;4282199;82;28500;-82
2021/05/12 15:26:22;;;;;;;9.55;2.22;;;;;;;28.03;33.37;97715.85;4274984;82;28541;-85
2021/05/12 15:32:23;;;;;;;15.23;2.60;;;;;;;27.91;33.41;97708.63;4264394;82;28534;-86
2021/05/12 15:38:25;;;;;;;8.23;2.10;;;;;;;27.82;33.13;97704.20;4273812;82;28510;-85
2021/05/12 15:44:27;;;;;;;6.70;2.15;;;;;;;28.07;33.37;97709.19;4286999;82;28545;-84
2021/05/12 15:50:28;;;;;;;7.72;2.20;;;;;;;28.35;33.62;97709.22;4283333;82;28486;-84
2021/05/12 15:56:30;;;;;;;6.65;2.05;;;;;;;28.25;33.40;97703.02;4281985;83;28507;-82
2021/05/12 16:02:31;;;;;;;8.33;1.85;;;;;;;28.24;33.16;97705.59;4273648;83;28533;-87
2021/05/12 16:08:34;;;;;;;4.05;1.85;;;;;;;28.15;33.34;97710.03;4284772;82;28537;-87
2021/05/12 16:14:36;;;;;;;5.87;2.05;;;;;;;27.89;32.59;97704.86;4296635;83;28514;-85
2021/05/12 16:20:37;;;;;;;6.95;2.00;;;;;;;27.79;32.64;97710.50;4285158;83;28600;-85
2021/05/12 16:26:40;;;;;;;5.45;1.87;;;;;;;28.08;33.03;97697.53;4290923;83;28489;-86
2021/05/12 16:32:41;;;;;;;4.50;1.75;;;;;;;28.15;32.52;97693.45;4293888;83;28498;-86
2021/05/12 16:38:44;;;;;;;5.08;2.08;;;;;;;27.69;32.06;97691.86;4284728;83;28497;-84
2021/05/12 16:44:45;;;;;;;5.20;1.82;;;;;;;27.86;31.56;97697.95;4289925;83;28486;-86
2021/05/12 16:50:48;;;;;;;4.78;1.27;;;;;;;27.89;30.84;97689.67;4283759;82;28510;-86
2021/05/12 16:56:49;;;;;;;4.25;1.75;;;;;;;28.38;31.26;97691.89;4277518;82;28525;-85
2021/05/12 17:02:50;;;;;;;4.45;1.55;;;;;;;27.79;30.96;97695.31;4273212;82;28482;-86
2021/05/12 17:08:56;;;;;;;3.58;1.60;;;;;;;28.18;30.71;97695.48;4273097;82;28562;-86
2021/05/12 17:14:57;;;;;;;9.43;2.05;;;;;;;28.40;30.58;97685.97;4271833;82;28577;-86
2021/05/12 17:21:00;;;;;;;5.37;2.22;;;;;;;28.11;30.09;97680.99;4266619;82;28473;-85
2021/05/12 17:27:02;;;;;;;7.55;1.72;;;;;;;28.11;30.33;97679.61;4292425;82;28564;-88
2021/05/12 17:33:04;;;;;;;4.85;1.60;;;;;;;28.22;30.50;97685.84;4273799;82;28537;-88
2021/05/12 17:39:08;;;;;;;5.42;2.02;;;;;;;28.63;30.69;97684.92;4271088;82;28478;-83
2021/05/12 17:45:11;;;;;;;5.12;1.72;;;;;;;28.30;30.80;97683.34;4258550;83;28495;-87
2021/05/12 17:51:16;;;;;;;5.83;1.92;;;;;;;27.81;31.65;97684.67;4266633;82;28541;-85
2021/05/12 17:57:17;;;;;;;3.72;1.72;;;;;;;27.40;32.40;97690.14;4322214;81;28540;-85
2021/05/12 18:03:22;;;;;;;5.58;2.15;;;;;;;26.72;33.31;97690.27;4319372;81;28490;-84
2021/05/12 18:09:21;;;;;;;7.67;2.10;;;;;;;26.43;33.61;97698.69;4322657;81;28562;-86
2021/05/12 18:21:42;;;;;;;10.48;2.20;;;;;;;25.52;35.18;97695.76;4333493;81;28492;-82
2021/05/12 18:27:44;;;;;;;5.78;2.20;;;;;;;25.46;35.25;97695.23;4256776;83;28552;-85
2021/05/12 18:33:47;;;;;;;5.53;2.15;;;;;;;25.14;35.21;97696.77;4255747;83;28590;-86
2021/05/12 18:39:58;;;;;;;6.60;2.12;;;;;;;25.08;35.40;97709.20;4254336;83;28581;-86
2021/05/12 18:45:54;;;;;;;8.38;2.40;;;;;;;24.85;36.08;97713.24;4266167;83;28546;-86
2021/05/12 18:51:54;;;;;;;7.10;2.30;;;;;;;24.61;36.70;97720.52;4238488;83;28555;-84
2021/05/12 18:57:56;;;;;;;7.05;2.40;;;;;;;24.72;36.64;97725.67;4257744;83;28478;-85
2021/05/12 19:03:57;;;;;;;6.83;2.37;;;;;;;24.42;37.35;97734.42;4250577;83;28536;-85
2021/05/12 19:16:16;;;;;;;7.80;2.62;;;;;;;24.33;38.05;97744.20;4326646;81;28538;-85
2021/05/12 19:22:27;;;;;;;6.20;2.62;;;;;;;23.88;38.95;97743.43;4322801;81;28484;-86
2021/05/12 19:41:00;;;;;;;6.05;3.30;;;;;;;23.52;40.89;97747.96;4313885;82;28527;-85
2021/05/12 19:46:42;;;;;;;5.28;2.90;;;;;;;23.49;41.37;97759.05;4318802;81;28488;-85
2021/05/12 19:52:46;;;;;;;9.98;2.90;;;;;;;23.58;41.24;97761.63;4289463;81;28608;-85
2021/05/12 19:58:48;;;;;;;9.70;2.90;;;;;;;23.65;41.38;97760.47;4331643;81;28486;-85
2021/05/12 20:04:59;;;;;;;7.12;2.50;;;;;;;23.52;41.99;97768.53;4330819;81;28499;-85
2021/05/12 20:17:14;;;;;;;5.15;2.45;;;;;;;23.59;42.36;97809.08;4328413;81;28557;-85
2021/05/12 20:23:15;;;;;;;7.22;3.12;;;;;;;23.69;42.28;97812.70;4340919;81;28502;-83
2021/05/12 20:29:17;;;;;;;8.18;3.25;;;;;;;23.62;42.12;97819.34;4334020;82;28518;-85
2021/05/12 20:41:39;;;;;;;6.25;3.75;;;;;;;23.29;43.63;97811.57;4291479;82;28478;-84
2021/05/12 20:47:40;;;;;;;6.83;3.50;;;;;;;23.09;48.58;97814.08;4275651;82;28493;-83
2021/05/12 20:53:43;;;;;;;6.28;4.20;;;;;;;22.83;51.15;97805.64;4258649;82;28574;-82
2021/05/12 20:59:44;;;;;;;6.37;3.85;;;;;;;22.45;58.68;97808.13;4270237;82;28498;-82
2021/05/12 21:05:46;;;;;;;6.65;4.15;;;;;;;22.24;62.77;97806.27;4242428;82;28632;-83
2021/05/12 21:11:47;;;;;;;9.40;3.95;;;;;;;22.07;61.50;97807.81;4377374;80;28530;-83
2021/05/12 21:17:48;;;;;;;5.95;3.85;;;;;;;21.81;64.13;97807.48;4377259;80;28558;-81
2021/05/12 21:23:50;;;;;;;5.90;3.92;;;;;;;21.53;67.32;97807.45;4379109;80;28532;-82
2021/05/12 21:29:51;;;;;;;6.17;3.70;;;;;;;21.23;71.88;97796.58;4379045;80;28573;-82
2021/05/12 21:35:52;;;;;;;7.53;4.20;;;;;;;20.91;74.80;97796.72;4379359;80;28582;-82
2021/05/12 21:41:54;;;;;;;5.55;3.70;;;;;;;20.76;76.76;97793.38;4386561;80;28512;-82
2021/05/12 21:47:55;;;;;;;7.33;4.15;;;;;;;20.67;77.18;97796.72;4382199;80;28484;-82
2021/05/12 21:53:56;;;;;;;5.83;4.28;;;;;;;20.44;81.35;97791.52;4412066;80;28501;-83
2021/05/12 21:59:57;;;;;;;6.22;4.30;;;;;;;20.23;83.27;97797.69;4383140;80;28586;-83
2021/05/12 22:06:15;;;;;;;5.37;4.30;;;;;;;20.22;82.76;97790.64;4390796;80;28589;-82
2021/05/12 22:24:45;;;;;;;7.30;4.78;;;;;;;19.86;89.77;97791.25;4441644;80;28586;-83
2021/05/12 22:30:45;;;;;;;7.33;5.15;;;;;;;19.79;93.52;97780.05;4440653;80;28494;-83
2021/05/12 22:36:47;;;;;;;7.80;5.10;;;;;;;19.72;92.22;97777.00;4451337;80;28598;-83
2021/05/12 22:42:49;;;;;;;9.93;4.97;;;;;;;19.62;99.19;97769.39;4425796;80;28535;-82
2021/05/12 22:48:50;;;;;;;8.50;5.65;;;;;;;19.56;100.00;97763.86;4406579;80;28683;-83
2021/05/12 22:54:54;;;;;;;9.55;5.97;;;;;;;19.56;100.00;97763.07;4415949;80;28480;-82
2021/05/12 23:00:58;;;;;;;7.45;6.30;;;;;;;19.41;100.00;97765.14;4424887;80;28550;-83
2021/05/12 23:07:00;;;;;;;9.68;6.17;;;;;;;19.39;100.00;97755.13;4414811;80;28473;-83
2021/05/12 23:13:01;;;;;;;8.98;6.60;;;;;;;19.28;100.00;97756.58;4429479;80;28502;-84
2021/05/12 23:19:02;;;;;;;9.08;7.03;;;;;;;19.31;100.00;97749.93;4391979;80;28584;-83
2021/05/12 23:25:11;;;;;;;10.48;6.72;;;;;;;19.30;100.00;97744.80;4429290;80;28495;-83
2021/05/12 23:31:09;;;;;;;11.80;7.40;;;;;;;19.32;100.00;97743.94;4415622;80;28480;-82
2021/05/12 23:37:11;;;;;;;11.68;8.20;;;;;;;18.91;100.00;97734.50;4420609;80;28575;-82
2021/05/12 23:43:17;;;;;;;11.55;8.40;;;;;;;19.06;100.00;97731.09;4420730;80;28483;-83
2021/05/12 23:49:15;;;;;;;11.80;8.35;;;;;;;18.91;100.00;97725.52;4433196;80;28556;-82
2021/05/12 23:55:17;;;;;;;12.58;8.05;;;;;;;18.81;100.00;97720.62;4413435;80;28508;-82
